sensor_id;sensor_type;location;lat;lon;timestamp;temperature;humidity
14934;DHT22;7560;51.364;12.384;2023-05-19T00:01:36;12.70;99.90
14934;DHT22;7560;51.364;12.384;2023-05-19T00:06:38;12.70;99.90
14934;DHT22;7560;51.364;12.384;2023-05-19T00:11:42;12.60;99.90
14934;DHT22;7560;51.364;12.384;2023-05-19T00:16:44;12.50;99.90
14934;DHT22;7560;51.364;12.384;2023-05-19T00:21:46;12.50;99.90
14934;DHT22;7560;51.364;12.384;2023-05-19T00:26:47;12.40;99.90
14934;DHT22;7560;51.364;12.384;2023-05-19T00:31:49;12.30;99.90
14934;DHT22;7560;51.364;12.384;2023-05-19T00:36:51;12.30;99.90
14934;DHT22;7560;51.364;12.384;2023-05-19T00:41:53;12.20;99.90
14934;DHT22;7560;51.364;12.384;2023-05-19T00:46:55;12.20;99.90
14934;DHT22;7560;51.364;12.384;2023-05-19T00:51:59;12.20;99.90
14934;DHT22;7560;51.364;12.384;2023-05-19T00:57:01;12.10;99.90
14934;DHT22;7560;51.364;12.384;2023-05-19T01:02:04;12.00;99.90
14934;DHT22;7560;51.364;12.384;2023-05-19T01:07:07;11.90;99.90
14934;DHT22;7560;51.364;12.384;2023-05-19T01:12:09;11.90;99.90
14934;DHT22;7560;51.364;12.384;2023-05-19T01:17:23;11.90;99.90
14934;DHT22;7560;51.364;12.384;2023-05-19T01:22:34;11.80;99.90
14934;DHT22;7560;51.364;12.384;2023-05-19T01:33:01;11.70;99.90
14934;DHT22;7560;51.364;12.384;2023-05-19T01:38:07;11.70;99.90
14934;DHT22;7560;51.364;12.384;2023-05-19T01:43:12;11.50;99.90
14934;DHT22;7560;51.364;12.384;2023-05-19T01:48:14;11.50;99.90
14934;DHT22;7560;51.364;12.384;2023-05-19T01:53:16;11.30;99.90
14934;DHT22;7560;51.364;12.384;2023-05-19T02:09:11;11.30;99.90
14934;DHT22;7560;51.364;12.384;2023-05-19T02:14:20;11.20;99.90
14934;DHT22;7560;51.364;12.384;2023-05-19T02:19:23;11.20;99.90
14934;DHT22;7560;51.364;12.384;2023-05-19T02:24:26;11.20;99.90
14934;DHT22;7560;51.364;12.384;2023-05-19T02:29:28;11.20;99.90
14934;DHT22;7560;51.364;12.384;2023-05-19T02:34:30;11.10;99.90
14934;DHT22;7560;51.364;12.384;2023-05-19T02:39:32;11.10;99.90
14934;DHT22;7560;51.364;12.384;2023-05-19T02:44:35;11.10;99.90
14934;DHT22;7560;51.364;12.384;2023-05-19T02:49:37;11.10;99.90
14934;DHT22;7560;51.364;12.384;2023-05-19T02:54:39;11.10;99.90
14934;DHT22;7560;51.364;12.384;2023-05-19T02:59:41;11.00;99.90
14934;DHT22;7560;51.364;12.384;2023-05-19T03:04:43;11.00;99.90
14934;DHT22;7560;51.364;12.384;2023-05-19T03:09:46;11.00;99.90
14934;DHT22;7560;51.364;12.384;2023-05-19T03:14:47;11.00;99.90
14934;DHT22;7560;51.364;12.384;2023-05-19T03:19:49;11.00;99.90
14934;DHT22;7560;51.364;12.384;2023-05-19T03:24:51;10.80;99.90
14934;DHT22;7560;51.364;12.384;2023-05-19T03:29:54;10.80;99.90
14934;DHT22;7560;51.364;12.384;2023-05-19T03:34:56;10.70;99.90
14934;DHT22;7560;51.364;12.384;2023-05-19T03:39:58;10.70;99.90
14934;DHT22;7560;51.364;12.384;2023-05-19T03:45:01;10.70;99.90
14934;DHT22;7560;51.364;12.384;2023-05-19T03:50:03;10.70;99.90
14934;DHT22;7560;51.364;12.384;2023-05-19T03:55:05;10.60;99.90
14934;DHT22;7560;51.364;12.384;2023-05-19T04:00:09;10.70;99.90
14934;DHT22;7560;51.364;12.384;2023-05-19T04:05:13;10.80;99.90
14934;DHT22;7560;51.364;12.384;2023-05-19T04:10:15;10.80;99.90
14934;DHT22;7560;51.364;12.384;2023-05-19T04:15:16;10.70;99.90
14934;DHT22;7560;51.364;12.384;2023-05-19T04:20:18;10.80;99.90
14934;DHT22;7560;51.364;12.384;2023-05-19T04:25:20;10.90;99.90
14934;DHT22;7560;51.364;12.384;2023-05-19T04:30:22;11.00;99.90
14934;DHT22;7560;51.364;12.384;2023-05-19T04:35:24;11.10;99.90
14934;DHT22;7560;51.364;12.384;2023-05-19T04:40:26;11.10;99.90
14934;DHT22;7560;51.364;12.384;2023-05-19T04:45:31;11.20;99.90
14934;DHT22;7560;51.364;12.384;2023-05-19T04:50:33;11.30;99.90
14934;DHT22;7560;51.364;12.384;2023-05-19T04:55:39;11.40;99.90
14934;DHT22;7560;51.364;12.384;2023-05-19T05:00:41;11.40;99.90
14934;DHT22;7560;51.364;12.384;2023-05-19T05:05:43;11.50;99.90
14934;DHT22;7560;51.364;12.384;2023-05-19T05:10:44;11.60;99.90
14934;DHT22;7560;51.364;12.384;2023-05-19T05:15:47;11.80;99.90
14934;DHT22;7560;51.364;12.384;2023-05-19T05:20:49;11.90;99.90
14934;DHT22;7560;51.364;12.384;2023-05-19T05:25:51;12.00;99.90
14934;DHT22;7560;51.364;12.384;2023-05-19T05:30:52;12.20;99.90
14934;DHT22;7560;51.364;12.384;2023-05-19T05:35:56;12.40;99.90
14934;DHT22;7560;51.364;12.384;2023-05-19T05:40:58;12.60;99.90
14934;DHT22;7560;51.364;12.384;2023-05-19T05:46:01;12.50;99.90
14934;DHT22;7560;51.364;12.384;2023-05-19T05:51:03;12.60;99.90
14934;DHT22;7560;51.364;12.384;2023-05-19T05:56:06;12.80;99.90
14934;DHT22;7560;51.364;12.384;2023-05-19T06:01:08;12.80;99.90
14934;DHT22;7560;51.364;12.384;2023-05-19T06:06:13;13.20;99.90
14934;DHT22;7560;51.364;12.384;2023-05-19T06:11:14;13.20;99.90
14934;DHT22;7560;51.364;12.384;2023-05-19T06:16:16;13.20;99.90
14934;DHT22;7560;51.364;12.384;2023-05-19T06:21:18;13.40;99.90
14934;DHT22;7560;51.364;12.384;2023-05-19T06:26:20;13.60;99.90
14934;DHT22;7560;51.364;12.384;2023-05-19T06:31:22;14.10;99.90
14934;DHT22;7560;51.364;12.384;2023-05-19T06:36:27;14.10;99.90
14934;DHT22;7560;51.364;12.384;2023-05-19T06:41:28;14.20;99.90
14934;DHT22;7560;51.364;12.384;2023-05-19T06:46:30;14.20;99.90
14934;DHT22;7560;51.364;12.384;2023-05-19T06:51:32;14.50;99.90
14934;DHT22;7560;51.364;12.384;2023-05-19T06:56:34;14.50;99.90
14934;DHT22;7560;51.364;12.384;2023-05-19T07:01:36;14.90;99.90
14934;DHT22;7560;51.364;12.384;2023-05-19T07:06:39;15.00;99.90
14934;DHT22;7560;51.364;12.384;2023-05-19T07:11:41;14.90;99.90
14934;DHT22;7560;51.364;12.384;2023-05-19T07:16:42;15.20;99.90
14934;DHT22;7560;51.364;12.384;2023-05-19T07:21:45;15.30;99.90
14934;DHT22;7560;51.364;12.384;2023-05-19T07:26:47;15.40;99.90
14934;DHT22;7560;51.364;12.384;2023-05-19T07:31:49;15.40;99.90
14934;DHT22;7560;51.364;12.384;2023-05-19T07:36:54;15.40;99.90
14934;DHT22;7560;51.364;12.384;2023-05-19T07:41:56;15.60;99.90
14934;DHT22;7560;51.364;12.384;2023-05-19T07:47:00;15.40;99.90
14934;DHT22;7560;51.364;12.384;2023-05-19T07:52:02;15.50;99.90
14934;DHT22;7560;51.364;12.384;2023-05-19T07:57:04;15.50;99.90
14934;DHT22;7560;51.364;12.384;2023-05-19T08:02:06;15.50;99.90
14934;DHT22;7560;51.364;12.384;2023-05-19T08:07:08;16.00;99.90
14934;DHT22;7560;51.364;12.384;2023-05-19T08:12:10;16.10;99.90
14934;DHT22;7560;51.364;12.384;2023-05-19T08:17:11;16.00;99.90
14934;DHT22;7560;51.364;12.384;2023-05-19T08:22:13;15.80;99.90
14934;DHT22;7560;51.364;12.384;2023-05-19T08:27:15;16.10;99.90
14934;DHT22;7560;51.364;12.384;2023-05-19T08:32:17;16.00;99.90
14934;DHT22;7560;51.364;12.384;2023-05-19T08:37:19;16.40;99.90
14934;DHT22;7560;51.364;12.384;2023-05-19T08:42:21;16.50;99.90
14934;DHT22;7560;51.364;12.384;2023-05-19T08:47:22;17.10;99.90
14934;DHT22;7560;51.364;12.384;2023-05-19T08:52:39;16.90;99.90
14934;DHT22;7560;51.364;12.384;2023-05-19T08:57:43;16.80;99.90
14934;DHT22;7560;51.364;12.384;2023-05-19T09:02:46;16.70;99.90
14934;DHT22;7560;51.364;12.384;2023-05-19T09:08:06;17.10;99.90
14934;DHT22;7560;51.364;12.384;2023-05-19T09:13:11;17.60;99.90
14934;DHT22;7560;51.364;12.384;2023-05-19T09:18:13;17.70;99.90
14934;DHT22;7560;51.364;12.384;2023-05-19T09:23:18;17.60;99.90
14934;DHT22;7560;51.364;12.384;2023-05-19T09:28:29;17.50;99.90
14934;DHT22;7560;51.364;12.384;2023-05-19T09:33:36;17.70;99.90
14934;DHT22;7560;51.364;12.384;2023-05-19T09:38:38;17.70;99.90
14934;DHT22;7560;51.364;12.384;2023-05-19T09:43:40;17.40;99.90
14934;DHT22;7560;51.364;12.384;2023-05-19T09:48:42;17.50;99.90
14934;DHT22;7560;51.364;12.384;2023-05-19T09:53:45;17.40;99.90
14934;DHT22;7560;51.364;12.384;2023-05-19T09:58:47;17.30;99.90
14934;DHT22;7560;51.364;12.384;2023-05-19T10:03:50;18.30;99.90
14934;DHT22;7560;51.364;12.384;2023-05-19T10:08:53;18.50;99.90
14934;DHT22;7560;51.364;12.384;2023-05-19T10:13:55;18.60;99.90
14934;DHT22;7560;51.364;12.384;2023-05-19T10:18:58;18.60;99.90
14934;DHT22;7560;51.364;12.384;2023-05-19T10:24:00;18.10;99.90
14934;DHT22;7560;51.364;12.384;2023-05-19T10:29:02;18.10;99.90
14934;DHT22;7560;51.364;12.384;2023-05-19T10:39:27;18.10;99.90
14934;DHT22;7560;51.364;12.384;2023-05-19T10:49:54;18.50;99.90
14934;DHT22;7560;51.364;12.384;2023-05-19T10:54:56;18.60;99.90
14934;DHT22;7560;51.364;12.384;2023-05-19T11:00:03;18.40;99.90
14934;DHT22;7560;51.364;12.384;2023-05-19T11:05:14;18.80;99.90
14934;DHT22;7560;51.364;12.384;2023-05-19T11:10:22;19.10;99.90
14934;DHT22;7560;51.364;12.384;2023-05-19T11:15:27;19.30;99.90
14934;DHT22;7560;51.364;12.384;2023-05-19T11:20:29;18.80;99.90
14934;DHT22;7560;51.364;12.384;2023-05-19T11:25:49;18.60;99.90
14934;DHT22;7560;51.364;12.384;2023-05-19T11:30:53;18.80;99.90
14934;DHT22;7560;51.364;12.384;2023-05-19T11:35:56;19.30;99.90
14934;DHT22;7560;51.364;12.384;2023-05-19T11:41:00;19.00;99.90
14934;DHT22;7560;51.364;12.384;2023-05-19T11:46:04;19.10;99.90
14934;DHT22;7560;51.364;12.384;2023-05-19T11:51:05;20.00;99.90
14934;DHT22;7560;51.364;12.384;2023-05-19T11:56:07;19.70;99.90
14934;DHT22;7560;51.364;12.384;2023-05-19T12:01:09;20.50;99.90
14934;DHT22;7560;51.364;12.384;2023-05-19T12:06:11;20.30;99.90
14934;DHT22;7560;51.364;12.384;2023-05-19T12:11:18;20.20;99.90
14934;DHT22;7560;51.364;12.384;2023-05-19T12:16:20;19.60;99.90
14934;DHT22;7560;51.364;12.384;2023-05-19T12:21:22;19.60;99.90
14934;DHT22;7560;51.364;12.384;2023-05-19T12:26:35;20.00;99.90
14934;DHT22;7560;51.364;12.384;2023-05-19T12:31:37;19.80;99.90
14934;DHT22;7560;51.364;12.384;2023-05-19T12:36:40;20.00;99.90
14934;DHT22;7560;51.364;12.384;2023-05-19T12:41:44;20.00;99.90
14934;DHT22;7560;51.364;12.384;2023-05-19T12:46:46;20.00;99.90
14934;DHT22;7560;51.364;12.384;2023-05-19T12:51:52;20.50;99.50
14934;DHT22;7560;51.364;12.384;2023-05-19T12:56:56;20.30;99.90
14934;DHT22;7560;51.364;12.384;2023-05-19T13:01:58;20.40;99.90
14934;DHT22;7560;51.364;12.384;2023-05-19T13:07:00;20.30;99.60
14934;DHT22;7560;51.364;12.384;2023-05-19T13:12:02;20.30;99.90
14934;DHT22;7560;51.364;12.384;2023-05-19T13:17:05;20.30;99.50
14934;DHT22;7560;51.364;12.384;2023-05-19T13:22:07;20.80;98.70
14934;DHT22;7560;51.364;12.384;2023-05-19T13:27:09;20.90;98.50
14934;DHT22;7560;51.364;12.384;2023-05-19T13:32:10;21.90;98.00
14934;DHT22;7560;51.364;12.384;2023-05-19T13:37:12;22.20;97.40
14934;DHT22;7560;51.364;12.384;2023-05-19T13:42:14;21.60;97.70
14934;DHT22;7560;51.364;12.384;2023-05-19T13:47:17;21.80;97.70
14934;DHT22;7560;51.364;12.384;2023-05-19T13:52:20;21.80;97.30
14934;DHT22;7560;51.364;12.384;2023-05-19T13:57:22;21.50;97.80
14934;DHT22;7560;51.364;12.384;2023-05-19T14:02:24;21.00;98.10
14934;DHT22;7560;51.364;12.384;2023-05-19T14:07:29;20.60;99.30
14934;DHT22;7560;51.364;12.384;2023-05-19T14:12:31;21.20;98.60
14934;DHT22;7560;51.364;12.384;2023-05-19T14:17:44;20.90;98.10
14934;DHT22;7560;51.364;12.384;2023-05-19T14:22:45;21.60;99.10
14934;DHT22;7560;51.364;12.384;2023-05-19T14:27:47;20.90;99.90
14934;DHT22;7560;51.364;12.384;2023-05-19T14:32:49;20.30;99.90
14934;DHT22;7560;51.364;12.384;2023-05-19T14:37:51;20.40;99.90
14934;DHT22;7560;51.364;12.384;2023-05-19T14:42:53;21.20;99.90
14934;DHT22;7560;51.364;12.384;2023-05-19T14:47:55;21.20;99.90
14934;DHT22;7560;51.364;12.384;2023-05-19T14:52:57;21.30;99.90
14934;DHT22;7560;51.364;12.384;2023-05-19T14:57:59;21.80;99.80
14934;DHT22;7560;51.364;12.384;2023-05-19T15:03:00;21.30;99.90
14934;DHT22;7560;51.364;12.384;2023-05-19T15:08:02;20.60;99.90
14934;DHT22;7560;51.364;12.384;2023-05-19T15:13:06;20.70;99.90
14934;DHT22;7560;51.364;12.384;2023-05-19T15:18:08;20.40;99.90
14934;DHT22;7560;51.364;12.384;2023-05-19T15:23:10;21.00;99.90
14934;DHT22;7560;51.364;12.384;2023-05-19T15:28:12;21.40;99.90
14934;DHT22;7560;51.364;12.384;2023-05-19T15:33:14;21.60;99.90
14934;DHT22;7560;51.364;12.384;2023-05-19T15:38:18;21.60;99.90
14934;DHT22;7560;51.364;12.384;2023-05-19T15:43:19;21.20;99.90
14934;DHT22;7560;51.364;12.384;2023-05-19T15:48:22;20.90;99.90
14934;DHT22;7560;51.364;12.384;2023-05-19T15:53:25;20.50;99.90
14934;DHT22;7560;51.364;12.384;2023-05-19T15:58:26;20.50;99.90
14934;DHT22;7560;51.364;12.384;2023-05-19T16:03:28;20.10;99.90
14934;DHT22;7560;51.364;12.384;2023-05-19T16:08:30;20.20;99.90
14934;DHT22;7560;51.364;12.384;2023-05-19T16:13:32;20.00;99.90
14934;DHT22;7560;51.364;12.384;2023-05-19T16:18:34;20.00;99.90
14934;DHT22;7560;51.364;12.384;2023-05-19T16:23:36;20.20;99.90
14934;DHT22;7560;51.364;12.384;2023-05-19T16:28:38;19.90;99.90
14934;DHT22;7560;51.364;12.384;2023-05-19T16:33:39;19.70;99.90
14934;DHT22;7560;51.364;12.384;2023-05-19T16:38:41;19.50;99.90
14934;DHT22;7560;51.364;12.384;2023-05-19T16:43:43;19.70;99.90
14934;DHT22;7560;51.364;12.384;2023-05-19T16:48:45;19.40;99.90
14934;DHT22;7560;51.364;12.384;2023-05-19T16:53:47;19.30;99.90
14934;DHT22;7560;51.364;12.384;2023-05-19T16:58:49;19.40;99.90
14934;DHT22;7560;51.364;12.384;2023-05-19T17:03:50;19.10;99.90
14934;DHT22;7560;51.364;12.384;2023-05-19T17:08:52;19.10;99.90
14934;DHT22;7560;51.364;12.384;2023-05-19T17:13:54;18.90;99.90
14934;DHT22;7560;51.364;12.384;2023-05-19T17:18:56;18.90;99.90
14934;DHT22;7560;51.364;12.384;2023-05-19T17:23:58;18.90;99.90
14934;DHT22;7560;51.364;12.384;2023-05-19T17:28:59;18.90;99.90
14934;DHT22;7560;51.364;12.384;2023-05-19T17:34:01;19.10;99.90
14934;DHT22;7560;51.364;12.384;2023-05-19T17:39:03;19.00;99.90
14934;DHT22;7560;51.364;12.384;2023-05-19T17:44:05;19.10;99.90
14934;DHT22;7560;51.364;12.384;2023-05-19T17:49:07;18.50;99.90
14934;DHT22;7560;51.364;12.384;2023-05-19T17:54:11;18.30;99.90
14934;DHT22;7560;51.364;12.384;2023-05-19T17:59:13;18.10;99.90
14934;DHT22;7560;51.364;12.384;2023-05-19T18:04:15;18.00;99.90
14934;DHT22;7560;51.364;12.384;2023-05-19T18:09:18;17.80;99.90
14934;DHT22;7560;51.364;12.384;2023-05-19T18:14:20;17.70;99.90
14934;DHT22;7560;51.364;12.384;2023-05-19T18:19:22;17.70;99.90
14934;DHT22;7560;51.364;12.384;2023-05-19T18:24:23;17.40;99.90
14934;DHT22;7560;51.364;12.384;2023-05-19T18:29:25;17.20;99.90
14934;DHT22;7560;51.364;12.384;2023-05-19T18:34:28;17.10;99.90
14934;DHT22;7560;51.364;12.384;2023-05-19T18:39:30;16.90;99.90
14934;DHT22;7560;51.364;12.384;2023-05-19T18:44:32;16.80;99.90
14934;DHT22;7560;51.364;12.384;2023-05-19T18:49:34;16.70;99.90
14934;DHT22;7560;51.364;12.384;2023-05-19T18:54:37;16.50;99.90
14934;DHT22;7560;51.364;12.384;2023-05-19T18:59:39;16.40;99.90
14934;DHT22;7560;51.364;12.384;2023-05-19T19:04:40;16.30;99.90
14934;DHT22;7560;51.364;12.384;2023-05-19T19:09:42;16.20;99.90
14934;DHT22;7560;51.364;12.384;2023-05-19T19:14:44;16.10;99.90
14934;DHT22;7560;51.364;12.384;2023-05-19T19:19:46;15.90;99.90
14934;DHT22;7560;51.364;12.384;2023-05-19T19:24:48;15.70;99.90
14934;DHT22;7560;51.364;12.384;2023-05-19T19:29:50;15.70;99.90
14934;DHT22;7560;51.364;12.384;2023-05-19T19:34:51;15.60;99.90
14934;DHT22;7560;51.364;12.384;2023-05-19T19:39:53;15.50;99.90
14934;DHT22;7560;51.364;12.384;2023-05-19T19:44:55;15.40;99.90
14934;DHT22;7560;51.364;12.384;2023-05-19T19:49:57;15.20;99.90
14934;DHT22;7560;51.364;12.384;2023-05-19T19:54:59;15.20;99.90
14934;DHT22;7560;51.364;12.384;2023-05-19T20:00:01;15.10;99.90
14934;DHT22;7560;51.364;12.384;2023-05-19T20:05:09;15.00;99.90
14934;DHT22;7560;51.364;12.384;2023-05-19T20:10:12;14.90;99.90
14934;DHT22;7560;51.364;12.384;2023-05-19T20:15:14;14.90;99.90
14934;DHT22;7560;51.364;12.384;2023-05-19T20:20:16;14.70;99.90
14934;DHT22;7560;51.364;12.384;2023-05-19T20:25:18;14.60;99.90
14934;DHT22;7560;51.364;12.384;2023-05-19T20:30:20;14.50;99.90
14934;DHT22;7560;51.364;12.384;2023-05-19T20:35:22;14.50;99.90
14934;DHT22;7560;51.364;12.384;2023-05-19T20:40:24;14.40;99.90
14934;DHT22;7560;51.364;12.384;2023-05-19T20:45:26;14.30;99.90
14934;DHT22;7560;51.364;12.384;2023-05-19T20:50:27;14.20;99.90
14934;DHT22;7560;51.364;12.384;2023-05-19T20:55:29;14.10;99.90
14934;DHT22;7560;51.364;12.384;2023-05-19T21:00:31;14.10;99.90
14934;DHT22;7560;51.364;12.384;2023-05-19T21:05:34;14.00;99.90
14934;DHT22;7560;51.364;12.384;2023-05-19T21:10:36;13.90;99.90
14934;DHT22;7560;51.364;12.384;2023-05-19T21:15:38;13.90;99.90
14934;DHT22;7560;51.364;12.384;2023-05-19T21:20:40;13.80;99.90
14934;DHT22;7560;51.364;12.384;2023-05-19T21:25:42;13.80;99.90
14934;DHT22;7560;51.364;12.384;2023-05-19T21:30:46;13.80;99.90
14934;DHT22;7560;51.364;12.384;2023-05-19T21:35:49;13.70;99.90
14934;DHT22;7560;51.364;12.384;2023-05-19T21:40:52;13.60;99.90
14934;DHT22;7560;51.364;12.384;2023-05-19T21:45:54;13.60;99.90
14934;DHT22;7560;51.364;12.384;2023-05-19T21:50:55;13.50;99.90
14934;DHT22;7560;51.364;12.384;2023-05-19T21:55:58;13.40;99.90
14934;DHT22;7560;51.364;12.384;2023-05-19T22:01:00;13.30;99.90
14934;DHT22;7560;51.364;12.384;2023-05-19T22:06:02;13.30;99.90
14934;DHT22;7560;51.364;12.384;2023-05-19T22:11:06;13.20;99.90
14934;DHT22;7560;51.364;12.384;2023-05-19T22:16:09;13.20;99.90
14934;DHT22;7560;51.364;12.384;2023-05-19T22:21:11;13.20;99.90
14934;DHT22;7560;51.364;12.384;2023-05-19T22:26:13;13.20;99.90
14934;DHT22;7560;51.364;12.384;2023-05-19T22:31:15;13.20;99.90
14934;DHT22;7560;51.364;12.384;2023-05-19T22:36:17;13.30;99.90
14934;DHT22;7560;51.364;12.384;2023-05-19T22:41:19;13.30;99.90
14934;DHT22;7560;51.364;12.384;2023-05-19T22:46:22;13.30;99.90
14934;DHT22;7560;51.364;12.384;2023-05-19T22:51:23;13.30;99.90
14934;DHT22;7560;51.364;12.384;2023-05-19T22:56:25;13.30;99.90
14934;DHT22;7560;51.364;12.384;2023-05-19T23:01:27;13.30;99.90
14934;DHT22;7560;51.364;12.384;2023-05-19T23:06:29;13.30;99.90
14934;DHT22;7560;51.364;12.384;2023-05-19T23:11:31;13.20;99.90
14934;DHT22;7560;51.364;12.384;2023-05-19T23:16:34;13.20;99.90
14934;DHT22;7560;51.364;12.384;2023-05-19T23:21:36;13.20;99.90
14934;DHT22;7560;51.364;12.384;2023-05-19T23:26:38;13.20;99.90
14934;DHT22;7560;51.364;12.384;2023-05-19T23:31:40;13.20;99.90
14934;DHT22;7560;51.364;12.384;2023-05-19T23:36:42;13.10;99.90
14934;DHT22;7560;51.364;12.384;2023-05-19T23:41:43;13.10;99.90
14934;DHT22;7560;51.364;12.384;2023-05-19T23:46:45;13.10;99.90
14934;DHT22;7560;51.364;12.384;2023-05-19T23:51:47;13.10;99.90
14934;DHT22;7560;51.364;12.384;2023-05-19T23:56:49;13.10;99.90
